Time;durP1;ratioP1;P1;durP2;ratioP2;P2;SDS_P1;SDS_P2;PMS_P1;PMS_P2;Temp;Humidity;BMP_temperature;BMP_pressure;BME280_temperature;BME280_humidity;BME280_pressure;Samples;Min_cycle;Max_cycle;Signal;HPM_P1;HPM_P2
2024/01/03 00:00:54;;;;;;;7.88;5.72;;;;;;;0.72;87.72;94393.19;5032802;28;20030;-67
2024/01/03 00:03:21;;;;;;;8.73;5.80;;;;;;;0.96;87.81;94395.41;5043293;28;20477;-67
2024/01/03 00:05:47;;;;;;;9.02;5.95;;;;;;;0.98;87.84;94398.72;5032717;28;20051;-67
2024/01/03 00:08:15;;;;;;;16.15;9.63;;;;;;;0.93;88.39;94400.69;5033863;28;20041;-67
2024/01/03 00:10:48;;;;;;;15.75;8.55;;;;;;;1.00;88.08;94396.91;5032711;28;20029;-67
2024/01/03 00:13:29;;;;;;;17.55;9.73;;;;;;;0.87;87.34;94412.06;5034346;28;20037;-67
2024/01/03 00:16:06;;;;;;;14.77;10.13;;;;;;;0.86;88.90;94413.81;5035901;28;20068;-67
2024/01/03 00:18:45;;;;;;;13.70;10.35;;;;;;;0.87;88.35;94415.44;5053467;28;20037;-67
2024/01/03 00:21:10;;;;;;;11.25;7.90;;;;;;;0.95;88.68;94414.22;5050663;28;20056;-67
2024/01/03 00:23:43;;;;;;;9.23;6.32;;;;;;;1.08;86.76;94393.03;5029368;28;20119;-67
2024/01/03 00:26:09;;;;;;;10.45;6.18;;;;;;;0.83;86.68;94421.59;5052545;28;20479;-67
2024/01/03 00:28:34;;;;;;;10.15;8.40;;;;;;;0.96;87.32;94406.47;5034251;28;20073;-67
2024/01/03 00:31:00;;;;;;;12.68;9.32;;;;;;;1.07;87.03;94391.38;5031370;28;20469;-67
2024/01/03 00:33:25;;;;;;;14.35;9.68;;;;;;;0.76;87.67;94399.00;5052512;28;20025;-67
2024/01/03 00:35:51;;;;;;;11.85;7.97;;;;;;;1.00;88.44;94410.50;5040215;28;20021;-67
2024/01/03 00:38:17;;;;;;;12.05;8.60;;;;;;;0.86;86.92;94405.28;5038891;28;20411;-67
2024/01/03 00:40:55;;;;;;;12.27;7.35;;;;;;;0.84;86.72;94410.50;5037659;28;20033;-67
2024/01/03 00:43:21;;;;;;;12.05;8.30;;;;;;;0.47;87.42;94391.06;5043190;28;20124;-67
2024/01/03 00:45:48;;;;;;;8.82;7.47;;;;;;;0.72;87.39;94400.88;5015720;28;20025;-67
2024/01/03 00:48:13;;;;;;;12.65;7.47;;;;;;;0.77;87.31;94391.25;5038776;28;20041;-67
2024/01/03 00:50:39;;;;;;;10.23;7.60;;;;;;;1.02;86.40;94405.31;5032033;28;20026;-67
2024/01/03 00:53:04;;;;;;;11.65;7.78;;;;;;;0.78;86.53;94382.69;5045962;28;20430;-66
2024/01/03 00:55:30;;;;;;;10.23;7.53;;;;;;;0.61;88.41;94406.56;5048401;28;20090;-67
2024/01/03 00:57:55;;;;;;;11.70;7.90;;;;;;;0.68;87.80;94366.16;5034625;28;20033;-67
2024/01/03 01:00:21;;;;;;;11.88;7.45;;;;;;;0.92;87.65;94386.22;5033186;28;20527;-67
2024/01/03 01:02:46;;;;;;;11.93;7.70;;;;;;;0.64;88.62;94390.22;5065287;28;20115;-67
2024/01/03 01:05:12;;;;;;;13.07;9.65;;;;;;;0.81;90.02;94400.41;5034722;28;20033;-67
2024/01/03 01:07:37;;;;;;;18.15;14.35;;;;;;;1.02;89.39;94400.22;5040477;28;20041;-67
2024/01/03 01:10:03;;;;;;;20.00;15.00;;;;;;;0.98;89.69;94398.72;5015113;28;20041;-67
2024/01/03 01:12:28;;;;;;;19.45;13.73;;;;;;;0.87;89.84;94401.84;5032868;28;20029;-67
2024/01/03 01:14:53;;;;;;;14.75;9.82;;;;;;;1.07;89.61;94396.50;5047373;28;20025;-68
2024/01/03 01:17:19;;;;;;;16.65;9.90;;;;;;;0.88;89.23;94399.19;5034905;28;20044;-66
2024/01/03 01:19:45;;;;;;;11.73;8.30;;;;;;;1.04;89.97;94401.78;5031598;28;20541;-67
2024/01/03 01:22:10;;;;;;;13.57;9.23;;;;;;;1.19;88.77;94394.22;4998422;28;20033;-67
2024/01/03 01:24:35;;;;;;;16.13;9.20;;;;;;;1.09;89.53;94406.66;5030404;28;20441;-66
2024/01/03 01:27:01;;;;;;;11.57;8.43;;;;;;;1.22;89.12;94402.53;5033037;28;20030;-66
2024/01/03 01:29:26;;;;;;;13.73;7.68;;;;;;;1.27;89.31;94380.09;5031479;28;20033;-66
2024/01/03 01:31:52;;;;;;;10.85;7.45;;;;;;;1.09;89.85;94389.59;5032989;28;20037;-66
2024/01/03 01:34:17;;;;;;;14.85;9.23;;;;;;;1.26;89.98;94393.00;5031494;28;20033;-65
2024/01/03 01:36:43;;;;;;;17.80;10.73;;;;;;;1.42;89.14;94367.38;5043190;28;20556;-66
2024/01/03 01:39:09;;;;;;;15.38;10.05;;;;;;;1.15;89.82;94360.28;5013324;28;20041;-67
2024/01/03 01:41:34;;;;;;;15.27;10.35;;;;;;;1.20;90.40;94377.94;5021694;28;20029;-66
2024/01/03 01:43:59;;;;;;;16.08;10.23;;;;;;;0.99;90.15;94338.97;5038542;28;20483;-67
2024/01/03 01:46:25;;;;;;;15.50;10.25;;;;;;;1.30;89.99;94377.38;5032551;28;20034;-66
2024/01/03 01:48:50;;;;;;;20.27;14.35;;;;;;;1.29;89.20;94362.09;5032335;28;20026;-67
2024/01/03 01:51:16;;;;;;;19.85;14.30;;;;;;;1.25;89.78;94371.66;5031016;28;20038;-66
2024/01/03 01:53:41;;;;;;;18.88;11.88;;;;;;;1.29;88.87;94357.00;5035406;28;20032;-67
2024/01/03 01:56:07;;;;;;;17.85;10.77;;;;;;;1.42;87.96;94372.50;5034077;28;20037;-66
2024/01/03 01:58:33;;;;;;;19.20;13.05;;;;;;;1.18;88.59;94374.66;5052017;28;20118;-67
2024/01/03 02:00:58;;;;;;;15.52;12.52;;;;;;;1.37;88.25;94366.81;5046405;28;20491;-66
2024/01/03 02:03:24;;;;;;;15.20;9.55;;;;;;;1.36;87.63;94377.94;5030710;28;20041;-66
2024/01/03 02:05:49;;;;;;;18.17;11.60;;;;;;;1.08;88.45;94370.00;5031735;28;20037;-66
2024/01/03 02:08:15;;;;;;;15.52;10.43;;;;;;;1.12;88.67;94357.91;5031869;28;20495;-66
2024/01/03 02:10:40;;;;;;;14.55;10.00;;;;;;;1.30;88.51;94387.59;5025769;28;20033;-67
2024/01/03 02:13:05;;;;;;;18.42;12.00;;;;;;;1.15;88.53;94387.63;5020103;28;20026;-66
2024/01/03 02:15:31;;;;;;;18.73;13.48;;;;;;;1.39;88.41;94403.38;5030445;28;20030;-66
2024/01/03 02:17:56;;;;;;;20.30;13.05;;;;;;;1.45;87.02;94383.41;5013828;28;20029;-66
2024/01/03 02:20:25;;;;;;;17.65;11.48;;;;;;;1.29;87.86;94395.38;5030789;28;20021;-66
2024/01/03 02:22:50;;;;;;;14.90;10.00;;;;;;;1.51;86.81;94393.31;5013252;28;20167;-66
2024/01/03 02:25:15;;;;;;;13.52;9.35;;;;;;;1.50;86.73;94380.59;5030671;28;20025;-65
2024/01/03 02:27:41;;;;;;;13.80;9.40;;;;;;;1.25;87.99;94361.44;5029693;28;20423;-65
2024/01/03 02:30:08;;;;;;;13.98;9.77;;;;;;;1.14;89.06;94366.28;5031486;28;20017;-66
2024/01/03 02:32:34;;;;;;;13.98;9.98;;;;;;;1.18;88.68;94357.56;5033865;28;20071;-66
2024/01/03 02:34:59;;;;;;;13.55;9.80;;;;;;;1.21;88.36;94377.88;5050074;28;20414;-65
2024/01/03 02:37:25;;;;;;;18.02;10.73;;;;;;;1.32;88.83;94372.19;5044591;28;20025;-66
2024/01/03 02:39:50;;;;;;;16.67;11.23;;;;;;;1.22;88.65;94355.66;5013832;28;20017;-66
2024/01/03 02:42:16;;;;;;;16.67;11.10;;;;;;;1.04;89.92;94375.38;5029960;28;20033;-66
2024/01/03 02:44:41;;;;;;;21.15;11.18;;;;;;;1.32;89.96;94388.34;5031182;28;20079;-66
2024/01/03 02:47:06;;;;;;;16.75;11.30;;;;;;;1.23;90.01;94365.81;5030652;28;20084;-66
2024/01/03 02:49:32;;;;;;;15.10;10.45;;;;;;;1.40;89.59;94364.09;5031235;28;20416;-68
2024/01/03 02:52:00;;;;;;;16.20;11.15;;;;;;;1.38;89.26;94371.84;5030009;28;20036;-66
2024/01/03 02:54:26;;;;;;;14.38;9.82;;;;;;;1.43;89.14;94346.81;5029931;28;20033;-66
2024/01/03 02:56:51;;;;;;;15.93;10.10;;;;;;;1.53;88.39;94344.56;5012657;28;20087;-66
2024/01/03 02:59:16;;;;;;;17.63;10.77;;;;;;;1.32;89.68;94349.97;5031022;28;20036;-66
2024/01/03 03:01:42;;;;;;;12.38;8.98;;;;;;;1.50;90.45;94337.88;5031316;28;20025;-66
2024/01/03 03:04:07;;;;;;;15.95;9.60;;;;;;;1.68;89.14;94338.63;5029920;28;20049;-66
2024/01/03 03:06:33;;;;;;;15.48;9.63;;;;;;;1.55;89.06;94341.03;5010031;28;20053;-66
2024/01/03 03:08:58;;;;;;;15.07;9.18;;;;;;;1.75;88.49;94328.84;5017379;28;20025;-66
2024/01/03 03:11:23;;;;;;;14.88;8.32;;;;;;;1.46;89.40;94321.06;5031119;28;20025;-66
2024/01/03 03:13:49;;;;;;;15.52;9.23;;;;;;;1.37;90.77;94316.44;5029936;28;20030;-66
2024/01/03 03:16:14;;;;;;;15.15;10.25;;;;;;;1.54;90.31;94325.75;5030995;28;20502;-66
2024/01/03 03:18:39;;;;;;;14.57;9.77;;;;;;;1.56;90.38;94329.03;5031092;28;20026;-66
2024/01/03 03:21:06;;;;;;;15.38;10.35;;;;;;;1.46;91.32;94326.19;5030691;28;20018;-66
2024/01/03 03:23:31;;;;;;;16.98;10.73;;;;;;;1.73;91.85;94326.38;5029246;28;20065;-66
2024/01/03 03:25:56;;;;;;;19.77;14.27;;;;;;;1.79;90.41;94323.47;5030893;28;20033;-66
2024/01/03 03:28:22;;;;;;;24.13;16.05;;;;;;;1.59;90.92;94310.97;5029582;28;20430;-66
2024/01/03 03:30:47;;;;;;;20.58;14.52;;;;;;;1.61;91.78;94337.28;5039520;28;20033;-66
2024/01/03 03:33:13;;;;;;;20.73;14.80;;;;;;;1.57;91.05;94297.44;5032113;28;20037;-66
2024/01/03 03:35:38;;;;;;;21.30;13.88;;;;;;;1.56;90.97;94291.47;5029237;28;20033;-66
2024/01/03 03:38:03;;;;;;;17.27;12.55;;;;;;;1.85;89.72;94309.50;5034366;28;20109;-66
2024/01/03 03:40:29;;;;;;;21.10;15.10;;;;;;;1.64;90.18;94326.88;5033645;28;20037;-66
2024/01/03 03:42:54;;;;;;;24.90;16.77;;;;;;;1.76;90.17;94315.97;5034930;28;20034;-66
2024/01/03 03:45:20;;;;;;;17.02;11.77;;;;;;;1.82;88.77;94293.50;5034482;28;20402;-66
2024/01/03 03:47:47;;;;;;;17.05;12.18;;;;;;;1.63;90.36;94309.06;5034468;28;20041;-66
2024/01/03 03:50:12;;;;;;;18.85;13.15;;;;;;;1.67;91.05;94308.81;5032246;28;20026;-65
2024/01/03 03:52:39;;;;;;;26.80;18.00;;;;;;;1.68;89.81;94287.41;5034551;28;20696;-65
2024/01/03 03:55:06;;;;;;;27.13;19.33;;;;;;;1.62;90.48;94287.75;5034291;28;20105;-65
2024/01/03 03:57:31;;;;;;;27.30;19.40;;;;;;;1.68;91.24;94296.81;5033202;28;20116;-66
2024/01/03 03:59:57;;;;;;;26.83;20.25;;;;;;;1.60;89.28;94251.16;5032062;28;20435;-66
2024/01/03 04:02:23;;;;;;;29.23;20.42;;;;;;;1.92;89.13;94286.91;5034136;28;20040;-67
2024/01/03 04:04:49;;;;;;;24.98;18.60;;;;;;;1.81;88.96;94279.00;5032949;28;20039;-66
2024/01/03 04:07:14;;;;;;;27.60;20.35;;;;;;;1.56;89.76;94285.50;5016389;28;20049;-65
2024/01/03 04:09:43;;;;;;;42.67;25.90;;;;;;;1.47;89.95;94298.84;5031967;28;20029;-66
2024/01/03 04:12:10;;;;;;;37.45;27.15;;;;;;;1.52;90.05;94296.84;5032972;28;20026;-66
2024/01/03 04:14:37;;;;;;;30.67;21.25;;;;;;;1.55;89.09;94306.91;5034066;28;20419;-68
2024/01/03 04:17:03;;;;;;;28.77;20.75;;;;;;;1.47;87.96;94311.63;5031641;28;20033;-65
2024/01/03 04:19:30;;;;;;;21.63;16.33;;;;;;;1.65;86.57;94317.50;5033947;28;20392;-67
2024/01/03 04:21:55;;;;;;;28.50;18.27;;;;;;;1.60;85.37;94304.94;5034261;28;20037;-65
2024/01/03 04:24:21;;;;;;;34.00;20.50;;;;;;;1.04;87.86;94306.31;5016135;28;20033;-66
2024/01/03 04:26:46;;;;;;;41.25;27.08;;;;;;;1.07;87.88;94313.81;5031698;28;20416;-66
2024/01/03 04:29:11;;;;;;;35.35;21.98;;;;;;;1.06;87.44;94307.06;5033770;28;20029;-66
2024/01/03 04:31:37;;;;;;;26.95;17.00;;;;;;;0.87;87.49;94309.78;5049520;28;20032;-65
2024/01/03 04:34:03;;;;;;;25.48;17.08;;;;;;;1.07;87.95;94306.16;5042567;28;20538;-65
2024/01/03 04:36:28;;;;;;;24.60;16.13;;;;;;;0.99;87.31;94268.19;5017937;28;20041;-65
2024/01/03 04:38:54;;;;;;;28.02;18.00;;;;;;;1.05;87.41;94311.31;5030440;28;20037;-67
2024/01/03 04:41:19;;;;;;;34.05;21.95;;;;;;;0.97;88.01;94331.38;5025005;28;20033;-65
2024/01/03 04:43:44;;;;;;;32.63;21.42;;;;;;;1.06;87.55;94319.84;5023010;28;20655;-65
2024/01/03 04:46:10;;;;;;;36.75;23.75;;;;;;;0.86;88.05;94319.19;5026409;28;20057;-66
2024/01/03 04:48:35;;;;;;;49.13;33.58;;;;;;;0.72;88.37;94306.25;5019876;28;20431;-65
2024/01/03 04:51:01;;;;;;;34.15;24.27;;;;;;;0.82;89.38;94332.19;5027568;28;20037;-65
2024/01/03 04:53:26;;;;;;;39.85;26.58;;;;;;;0.80;89.04;94316.91;5027774;28;20057;-65
2024/01/03 04:55:51;;;;;;;40.78;25.83;;;;;;;0.72;89.22;94325.91;5025903;28;20033;-65
2024/01/03 04:58:17;;;;;;;34.25;24.50;;;;;;;1.01;89.45;94319.28;5017928;28;20045;-65
2024/01/03 05:00:43;;;;;;;33.63;26.17;;;;;;;1.08;89.05;94311.16;5026478;28;20572;-65
2024/01/03 05:03:08;;;;;;;31.27;22.77;;;;;;;1.00;89.52;94310.75;5008303;28;20041;-65
2024/01/03 05:05:34;;;;;;;30.20;19.52;;;;;;;0.97;89.10;94310.91;5025627;28;20042;-65
2024/01/03 05:07:59;;;;;;;21.13;16.25;;;;;;;0.96;89.40;94324.63;5007187;28;20500;-65
2024/01/03 05:10:25;;;;;;;27.02;20.40;;;;;;;0.96;90.09;94318.69;5009243;28;20202;-65
2024/01/03 05:12:50;;;;;;;20.50;14.75;;;;;;;1.07;89.64;94324.06;4998766;28;20030;-65
2024/01/03 05:15:16;;;;;;;24.45;19.10;;;;;;;0.98;89.96;94322.00;5013303;28;20026;-66
2024/01/03 05:17:41;;;;;;;31.58;25.45;;;;;;;1.08;89.28;94313.72;5003129;28;20034;-66
2024/01/03 05:20:08;;;;;;;25.58;19.40;;;;;;;1.00;90.18;94315.03;5006712;28;20025;-66
2024/01/03 05:22:34;;;;;;;39.67;28.75;;;;;;;1.13;90.89;94321.16;5015078;28;20042;-66
2024/01/03 05:25:00;;;;;;;37.33;26.85;;;;;;;1.10;90.92;94311.09;4979063;28;20391;-66
2024/01/03 05:27:25;;;;;;;35.75;24.98;;;;;;;1.00;90.95;94310.75;5011766;28;20502;-66
2024/01/03 05:29:51;;;;;;;36.45;27.13;;;;;;;1.29;91.11;94321.97;5008273;28;20022;-66
2024/01/03 05:32:16;;;;;;;39.17;27.88;;;;;;;1.19;90.88;94310.59;5019933;28;20033;-66
2024/01/03 05:34:42;;;;;;;49.42;32.95;;;;;;;1.24;90.68;94306.03;5006201;28;20030;-66
2024/01/03 05:37:07;;;;;;;50.35;32.28;;;;;;;1.04;91.58;94306.31;4995000;28;20038;-66
2024/01/03 05:39:33;;;;;;;50.40;32.80;;;;;;;1.09;89.62;94299.22;4991485;28;20038;-66
2024/01/03 05:41:58;;;;;;;69.68;40.90;;;;;;;1.01;90.28;94280.91;4997570;28;20037;-66
2024/01/03 05:44:24;;;;;;;80.93;47.08;;;;;;;0.93;89.77;94316.28;4979573;28;20030;-67
2024/01/03 05:46:49;;;;;;;43.22;26.17;;;;;;;1.06;88.81;94325.78;5006909;28;20040;-65
2024/01/03 05:49:15;;;;;;;39.10;24.95;;;;;;;0.86;88.45;94331.97;4986731;28;20029;-66
2024/01/03 05:51:40;;;;;;;38.58;23.05;;;;;;;0.93;88.71;94321.41;5010584;28;20026;-66
2024/01/03 05:54:06;;;;;;;35.33;24.15;;;;;;;0.75;88.18;94290.75;5008647;28;20072;-66
2024/01/03 05:56:31;;;;;;;36.42;24.13;;;;;;;0.83;89.17;94319.31;4999584;28;20476;-66
2024/01/03 05:58:57;;;;;;;36.38;21.88;;;;;;;0.93;88.78;94311.19;4990907;28;20037;-65
2024/01/03 06:01:22;;;;;;;39.75;24.42;;;;;;;0.74;88.78;94321.53;5014628;28;20030;-66
2024/01/03 06:03:49;;;;;;;35.42;22.10;;;;;;;0.65;89.92;94310.88;5000321;28;21651;-67
2024/01/03 06:06:16;;;;;;;27.83;18.15;;;;;;;0.67;90.30;94318.50;4991795;28;20048;-64
2024/01/03 06:08:41;;;;;;;27.90;17.08;;;;;;;0.85;90.51;94337.16;5026842;28;20460;-65
2024/01/03 06:11:09;;;;;;;39.22;22.58;;;;;;;0.92;90.01;94309.50;5027130;28;20036;-65
2024/01/03 06:13:34;;;;;;;24.90;16.60;;;;;;;0.82;90.24;94317.66;5029722;28;20037;-65
2024/01/03 06:15:59;;;;;;;207.48;70.63;;;;;;;0.58;90.63;94298.50;5027701;28;20388;-65
2024/01/03 06:18:25;;;;;;;86.30;38.03;;;;;;;0.86;91.26;94331.97;5025445;28;20045;-65
2024/01/03 06:20:50;;;;;;;39.72;21.85;;;;;;;0.96;90.70;94313.56;5027514;28;20496;-65
2024/01/03 06:23:16;;;;;;;37.70;20.52;;;;;;;0.81;91.20;94285.34;5028097;28;20526;-65
2024/01/03 06:25:41;;;;;;;39.90;21.65;;;;;;;1.12;90.96;94304.16;5027291;28;20030;-65
2024/01/03 06:28:06;;;;;;;32.58;18.20;;;;;;;1.03;91.15;94318.28;5025016;28;20037;-65
2024/01/03 06:30:32;;;;;;;45.05;23.45;;;;;;;1.25;90.97;94330.72;5026734;28;20328;-65
2024/01/03 06:32:57;;;;;;;58.58;29.15;;;;;;;1.06;91.02;94327.53;5027083;28;20034;-65
2024/01/03 06:35:23;;;;;;;44.90;24.52;;;;;;;1.02;91.07;94323.47;5026345;28;20048;-65
2024/01/03 06:37:48;;;;;;;39.40;20.48;;;;;;;1.23;91.61;94317.19;5026672;28;20052;-65
2024/01/03 06:40:14;;;;;;;46.90;25.75;;;;;;;1.08;92.14;94318.84;5027799;28;20030;-65
2024/01/03 06:42:40;;;;;;;43.70;26.35;;;;;;;1.37;91.96;94326.69;5027681;28;20057;-66
2024/01/03 06:45:05;;;;;;;50.08;28.10;;;;;;;1.46;91.18;94322.81;5026966;28;20415;-65
2024/01/03 06:47:31;;;;;;;45.47;25.25;;;;;;;1.43;91.43;94308.44;5024694;28;20040;-66
2024/01/03 06:49:56;;;;;;;45.22;22.23;;;;;;;1.46;91.95;94303.13;5027555;28;20030;-65
2024/01/03 06:52:22;;;;;;;62.35;34.10;;;;;;;1.62;91.36;94302.31;5027376;28;20439;-65
2024/01/03 06:54:47;;;;;;;45.13;27.73;;;;;;;1.69;90.97;94289.03;5027512;28;20458;-65
2024/01/03 06:57:12;;;;;;;29.23;17.13;;;;;;;1.68;92.68;94287.41;5024576;28;20044;-65
2024/01/03 06:59:38;;;;;;;24.30;15.93;;;;;;;1.49;93.01;94299.59;5008805;28;20036;-66
2024/01/03 07:02:04;;;;;;;34.60;20.50;;;;;;;1.74;93.57;94287.06;5026609;28;20028;-67
2024/01/03 07:04:29;;;;;;;26.98;17.50;;;;;;;1.97;93.35;94301.09;5029680;28;20037;-67
2024/01/03 07:06:56;;;;;;;30.33;21.15;;;;;;;1.92;93.13;94297.16;5026413;28;20056;-67
2024/01/03 07:09:21;;;;;;;36.42;23.92;;;;;;;2.03;92.22;94301.66;5009654;28;20037;-67
2024/01/03 07:11:47;;;;;;;30.35;20.20;;;;;;;2.11;91.58;94302.06;5026447;28;20591;-67
2024/01/03 07:14:13;;;;;;;29.40;19.75;;;;;;;2.08;91.62;94315.88;5025371;28;20047;-66
2024/01/03 07:16:39;;;;;;;27.73;19.30;;;;;;;2.30;91.26;94304.38;5039196;28;20056;-67
2024/01/03 07:19:05;;;;;;;29.77;18.23;;;;;;;2.36;91.74;94299.69;5026223;28;20025;-67
2024/01/03 07:21:30;;;;;;;24.77;17.30;;;;;;;2.43;91.27;94280.50;5025189;28;20029;-67
2024/01/03 07:23:56;;;;;;;26.13;17.25;;;;;;;2.43;91.86;94292.50;5021620;28;20048;-67
2024/01/03 07:26:21;;;;;;;22.38;14.50;;;;;;;2.45;91.94;94299.19;5027296;28;20041;-66
2024/01/03 07:28:46;;;;;;;31.33;20.05;;;;;;;2.52;92.13;94291.94;5025760;28;20022;-66
2024/01/03 07:31:12;;;;;;;43.25;25.77;;;;;;;2.58;91.84;94296.69;5027376;28;20029;-67
2024/01/03 07:33:40;;;;;;;32.17;20.58;;;;;;;2.53;92.32;94306.41;5008017;28;20116;-66
2024/01/03 07:36:05;;;;;;;31.80;20.33;;;;;;;2.83;91.44;94297.78;5027177;28;20108;-66
2024/01/03 07:38:31;;;;;;;38.70;22.30;;;;;;;2.62;91.67;94300.75;5025428;28;20040;-66
2024/01/03 07:40:56;;;;;;;47.47;30.45;;;;;;;2.75;91.35;94282.03;5008922;28;20029;-65
2024/01/03 07:43:21;;;;;;;54.90;33.22;;;;;;;2.73;91.47;94301.81;5025392;28;20033;-66
2024/01/03 07:45:47;;;;;;;50.97;31.50;;;;;;;2.86;90.85;94305.28;5028155;28;20469;-66
2024/01/03 07:48:12;;;;;;;63.15;37.38;;;;;;;2.81;89.64;94303.00;5028070;28;20091;-66
2024/01/03 07:50:38;;;;;;;50.33;32.20;;;;;;;3.01;88.96;94316.34;5027461;28;20036;-66
2024/01/03 07:53:05;;;;;;;46.50;30.08;;;;;;;2.94;89.56;94326.19;5026525;28;20045;-66
2024/01/03 07:55:30;;;;;;;49.83;30.52;;;;;;;3.01;89.66;94317.22;5025958;28;20032;-66
2024/01/03 07:57:56;;;;;;;49.15;30.20;;;;;;;2.89;89.49;94294.84;5026638;28;20034;-65
2024/01/03 08:00:21;;;;;;;50.08;30.70;;;;;;;3.00;89.41;94315.53;5025389;28;20403;-65
2024/01/03 08:02:47;;;;;;;62.50;36.13;;;;;;;3.24;89.04;94307.25;5027743;28;20076;-65
2024/01/03 08:05:12;;;;;;;66.13;36.83;;;;;;;3.20;89.01;94316.06;5025322;28;20128;-65
2024/01/03 08:07:38;;;;;;;65.57;36.15;;;;;;;3.27;89.03;94304.50;5024988;28;20035;-65
2024/01/03 08:10:03;;;;;;;21.63;14.45;;;;;;;3.06;91.11;94279.22;5026364;28;20037;-65
2024/01/03 08:12:29;;;;;;;28.88;18.30;;;;;;;3.09;90.59;94291.03;5026315;28;20113;-65
2024/01/03 08:14:54;;;;;;;33.60;19.00;;;;;;;3.11;91.05;94296.91;5026275;28;20128;-66
2024/01/03 08:17:20;;;;;;;24.92;16.83;;;;;;;3.04;90.95;94293.91;5025775;28;20045;-67
2024/01/03 08:19:45;;;;;;;21.85;14.50;;;;;;;3.20;91.14;94293.78;5025636;28;20029;-65
2024/01/03 08:22:11;;;;;;;19.50;12.48;;;;;;;3.23;91.68;94290.19;5026986;28;20037;-66
2024/01/03 08:24:36;;;;;;;13.75;9.23;;;;;;;3.29;91.59;94290.66;5028981;28;20025;-66
2024/01/03 08:27:02;;;;;;;14.73;9.90;;;;;;;3.38;91.67;94283.28;5030486;28;20030;-67
2024/01/03 08:29:30;;;;;;;21.75;14.77;;;;;;;3.36;91.49;94255.13;5030443;28;20120;-67
2024/01/03 08:31:55;;;;;;;37.25;25.35;;;;;;;3.55;90.90;94273.59;5012115;28;20029;-67
2024/01/03 08:34:21;;;;;;;34.35;23.48;;;;;;;3.72;90.70;94280.22;5028621;28;20026;-67
2024/01/03 08:36:46;;;;;;;40.08;24.98;;;;;;;3.52;90.78;94255.00;5030182;28;20095;-66
2024/01/03 08:39:12;;;;;;;42.67;29.23;;;;;;;3.71;90.45;94258.03;5012874;28;20484;-66
2024/01/03 08:41:37;;;;;;;48.97;36.45;;;;;;;3.79;89.32;94260.09;5029165;28;20033;-66
2024/01/03 08:44:05;;;;;;;48.00;30.58;;;;;;;3.65;90.31;94258.44;5028277;28;20056;-65
2024/01/03 08:46:39;;;;;;;53.30;36.53;;;;;;;3.77;89.59;94256.81;5030190;28;20029;-66
2024/01/03 08:49:05;;;;;;;52.60;35.15;;;;;;;3.73;89.31;94242.50;5026924;28;20124;-66
2024/01/03 08:51:30;;;;;;;35.58;23.52;;;;;;;3.62;89.57;94250.06;5028517;28;20033;-65
2024/01/03 08:53:56;;;;;;;39.20;27.55;;;;;;;3.67;88.36;94246.28;5027062;28;20026;-65
2024/01/03 08:56:21;;;;;;;45.97;30.75;;;;;;;3.76;87.88;94263.69;5029228;28;20522;-66
2024/01/03 08:58:47;;;;;;;37.60;25.77;;;;;;;3.66;87.79;94254.91;5031862;28;20030;-65
2024/01/03 09:01:19;;;;;;;23.60;16.63;;;;;;;3.72;86.83;94246.00;5034449;28;20373;-65
2024/01/03 09:03:48;;;;;;;21.88;15.65;;;;;;;3.76;86.89;94242.28;5035088;28;20123;-66
2024/01/03 09:06:14;;;;;;;18.20;12.63;;;;;;;3.69;87.66;94256.47;5034751;28;20052;-65
2024/01/03 09:08:40;;;;;;;22.48;14.70;;;;;;;3.83;87.59;94246.13;5051625;28;20079;-66
2024/01/03 09:11:11;;;;;;;21.98;13.95;;;;;;;3.68;86.66;94224.00;5051495;28;20033;-66
2024/01/03 09:13:38;;;;;;;;;;;;;;;3.75;86.92;94232.94;5053532;28;20061;-65
2024/01/03 09:16:06;;;;;;;29.38;16.08;;;;;;;3.90;86.88;94236.25;5033445;28;19924;-65
2024/01/03 09:18:32;;;;;;;25.10;16.73;;;;;;;3.66;86.99;94195.03;5051128;28;20029;-66
2024/01/03 09:21:00;;;;;;;27.40;16.63;;;;;;;3.95;87.35;94218.78;5032839;28;20041;-66
2024/01/03 09:23:27;;;;;;;36.08;26.10;;;;;;;3.79;88.54;94236.97;5030472;28;20030;-67
2024/01/03 09:25:55;;;;;;;32.95;23.15;;;;;;;3.90;88.31;94249.09;5031579;28;20048;-66
2024/01/03 09:28:20;;;;;;;30.52;21.00;;;;;;;3.81;88.47;94235.09;5031655;28;20030;-66
2024/01/03 09:30:46;;;;;;;53.05;29.20;;;;;;;4.00;87.61;94229.59;5031274;28;20032;-66
2024/01/03 09:33:12;;;;;;;38.97;25.02;;;;;;;4.07;88.22;94235.13;5032487;28;20483;-65
2024/01/03 09:35:38;;;;;;;14.85;8.70;;;;;;;4.12;88.27;94251.06;5031848;28;20462;-67
2024/01/03 09:38:04;;;;;;;22.50;12.60;;;;;;;4.33;85.54;94223.94;5031204;28;20034;-67
2024/01/03 09:40:31;;;;;;;4.90;3.13;;;;;;;4.57;82.10;94224.03;5032743;28;20056;-68
2024/01/03 09:42:57;;;;;;;2.90;1.95;;;;;;;5.10;78.58;94232.34;5031221;28;20036;-68
2024/01/03 09:45:22;;;;;;;2.65;1.60;;;;;;;5.45;75.82;94229.00;5014597;28;20038;-66
2024/01/03 09:47:48;;;;;;;2.58;1.40;;;;;;;5.69;73.10;94226.41;5031165;28;20029;-66
2024/01/03 09:50:13;;;;;;;3.22;1.48;;;;;;;6.12;70.96;94231.00;5030846;28;20491;-66
2024/01/03 09:52:39;;;;;;;8.68;6.18;;;;;;;6.04;74.31;94241.06;5032417;28;20033;-67
2024/01/03 09:55:05;;;;;;;12.43;7.88;;;;;;;5.56;75.62;94189.56;5014329;28;20029;-67
2024/01/03 09:57:30;;;;;;;10.18;6.20;;;;;;;5.89;76.02;94229.28;5014012;28;20111;-66
2024/01/03 09:59:56;;;;;;;10.43;6.88;;;;;;;5.72;76.76;94218.44;5013046;28;20480;-67
2024/01/03 10:02:26;;;;;;;6.82;4.30;;;;;;;5.65;76.34;94211.25;5031586;28;20036;-65
2024/01/03 10:04:52;;;;;;;3.65;2.40;;;;;;;5.87;75.06;94223.41;5029315;28;20030;-67
2024/01/03 10:07:17;;;;;;;4.32;2.60;;;;;;;5.98;74.87;94218.31;5032985;28;20080;-66
2024/01/03 10:09:46;;;;;;;13.00;7.13;;;;;;;6.02;73.94;94201.69;5031529;28;20036;-68
2024/01/03 10:12:16;;;;;;;8.15;5.30;;;;;;;6.00;73.39;94198.41;5047100;28;20435;-67
2024/01/03 10:14:42;;;;;;;3.63;1.95;;;;;;;6.12;72.70;94179.41;5025643;28;20508;-68
2024/01/03 10:17:08;;;;;;;2.55;1.35;;;;;;;6.25;72.50;94203.34;5012340;28;20037;-66
2024/01/03 10:19:33;;;;;;;2.95;1.38;;;;;;;6.31;72.83;94209.00;4998838;28;20029;-68
2024/01/03 10:22:01;;;;;;;3.20;1.48;;;;;;;6.27;71.12;94195.50;5031935;28;20041;-68
2024/01/03 10:24:27;;;;;;;2.95;1.20;;;;;;;6.49;69.58;94199.84;5030192;28;20047;-68
2024/01/03 10:26:52;;;;;;;2.38;1.10;;;;;;;6.35;71.19;94182.00;5031868;28;20033;-68
2024/01/03 10:29:18;;;;;;;2.60;1.40;;;;;;;6.42;70.59;94190.94;5034451;28;20026;-69
2024/01/03 10:31:47;;;;;;;3.05;1.92;;;;;;;6.37;71.50;94167.25;5033630;28;20033;-68
2024/01/03 10:34:17;;;;;;;3.13;1.25;;;;;;;6.26;70.96;94168.06;5029283;28;20135;-70
2024/01/03 10:36:45;;;;;;;2.40;1.10;;;;;;;6.39;70.90;94171.34;5027803;28;20030;-69
2024/01/03 10:39:17;;;;;;;2.75;1.67;;;;;;;6.41;71.98;94159.16;5027882;28;20109;-69
2024/01/03 10:41:46;;;;;;;2.35;1.30;;;;;;;6.40;72.92;94157.50;5011200;28;20501;-70
2024/01/03 10:44:17;;;;;;;2.90;1.13;;;;;;;6.43;71.87;94146.94;5048376;28;20151;-71
2024/01/03 10:46:43;;;;;;;2.00;1.20;;;;;;;6.46;71.63;94140.72;5065634;28;20522;-70
2024/01/03 10:49:09;;;;;;;3.45;1.30;;;;;;;6.38;71.96;94140.50;5026692;28;20033;-70
2024/01/03 10:51:42;;;;;;;1.73;1.13;;;;;;;6.38;73.19;94146.50;5007451;28;20030;-69
2024/01/03 10:54:15;;;;;;;2.88;1.23;;;;;;;6.35;72.39;94130.41;5022553;28;20395;-68
2024/01/03 10:56:47;;;;;;;1.60;0.90;;;;;;;6.40;71.67;94136.84;5004070;28;20033;-71
2024/01/03 10:59:12;;;;;;;1.95;1.17;;;;;;;6.43;71.65;94128.88;5037350;28;20029;-68
2024/01/03 11:01:47;;;;;;;3.80;1.98;;;;;;;6.37;72.68;94125.97;5033715;28;20079;-70
2024/01/03 11:04:28;;;;;;;1.83;1.10;;;;;;;6.26;73.85;94131.94;5016292;28;20541;-68
2024/01/03 11:07:13;;;;;;;2.05;1.52;;;;;;;6.38;71.48;94128.44;5034761;28;20060;-69
2024/01/03 11:09:39;;;;;;;2.00;1.40;;;;;;;6.33;71.72;94119.41;5038225;28;20048;-68
2024/01/03 11:12:08;;;;;;;2.30;1.38;;;;;;;6.33;72.68;94119.41;5024625;28;20503;-68
2024/01/03 11:14:34;;;;;;;5.13;3.30;;;;;;;6.28;72.67;94124.09;5029017;28;20495;-68
2024/01/03 11:17:00;;;;;;;11.68;7.20;;;;;;;6.31;73.30;94129.03;5028724;28;20032;-68
2024/01/03 11:19:27;;;;;;;17.42;11.25;;;;;;;6.00;75.59;94139.91;5029394;28;20029;-68
2024/01/03 11:21:53;;;;;;;15.68;9.82;;;;;;;5.93;74.95;94135.28;5025740;28;20125;-70
2024/01/03 11:24:21;;;;;;;8.60;6.18;;;;;;;6.02;74.84;94117.41;5029434;28;20037;-68